Time,TemperatureF,DewpointF,PressureIn,WindDirection,WindDirectionDegrees,WindSpeedMPH,WindSpeedGustMPH,Humidity,HourlyPrecipIn,Conditions,Clouds,dailyrainin,SoftwareType,DateUTC
2013-04-24 00:00:00,43.9,38.4,30.09,North,351,0.0,0.0,81,0.00,,---,0.00,VWS V14.01,2013-04-24 04:00:00,
2013-04-24 00:01:00,43.9,38.4,30.09,NNW,347,0.0,0.0,81,0.00,,---,0.00,VWS V14.01,2013-04-24 04:01:00,
2013-04-24 00:06:00,43.5,38.4,30.09,NNW,341,0.0,0.0,82,0.00,,---,0.00,VWS V14.01,2013-04-24 04:06:00,
2013-04-24 00:11:00,43.3,38.5,30.09,North,351,0.0,0.0,83,0.00,,---,0.00,VWS V14.01,2013-04-24 04:11:00,
2013-04-24 00:16:00,43.5,39.0,30.09,NNW,347,0.0,0.0,84,0.00,,---,0.00,VWS V14.01,2013-04-24 04:16:00,
2013-04-24 00:21:00,43.3,39.1,30.09,NW,318,3.6,3.6,85,0.00,,---,0.00,VWS V14.01,2013-04-24 04:21:00,
2013-04-24 00:26:00,43.3,39.4,30.09,North,351,0.0,2.7,86,0.00,,---,0.00,VWS V14.01,2013-04-24 04:26:00,
2013-04-24 00:31:00,42.8,38.6,30.09,West,266,3.6,3.6,85,0.00,,---,0.00,VWS V14.01,2013-04-24 04:31:00,
2013-04-24 00:36:00,42.4,38.6,30.09,WNW,295,3.1,3.6,86,0.00,,---,0.00,VWS V14.01,2013-04-24 04:36:00,
2013-04-24 00:41:00,42.1,38.2,30.09,NW,316,0.0,0.0,86,0.00,,---,0.00,VWS V14.01,2013-04-24 04:41:00,
2013-04-24 00:46:00,41.7,38.1,30.09,NW,310,3.1,3.1,87,0.00,,---,0.00,VWS V14.01,2013-04-24 04:46:00,
2013-04-24 00:51:00,41.5,38.0,30.09,WNW,290,3.1,3.6,87,0.00,,---,0.00,VWS V14.01,2013-04-24 04:51:00,
2013-04-24 00:56:00,41.4,38.1,30.09,North,351,3.6,3.6,88,0.00,,---,0.00,VWS V14.01,2013-04-24 04:56:00,
2013-04-24 01:01:00,41.4,38.4,30.09,North,351,3.6,3.6,89,0.00,,---,0.00,VWS V14.01,2013-04-24 05:01:00,
2013-04-24 01:06:00,41.5,38.8,30.09,North,351,3.6,3.6,90,0.00,,---,0.00,VWS V14.01,2013-04-24 05:06:00,
2013-04-24 01:11:00,41.2,38.5,30.09,NW,315,0.0,0.0,90,0.00,,---,0.00,VWS V14.01,2013-04-24 05:11:00,
2013-04-24 01:16:00,41.2,39.0,30.09,NW,315,0.0,0.0,92,0.00,,---,0.00,VWS V14.01,2013-04-24 05:16:00,
2013-04-24 01:21:00,41.4,39.2,30.06,NW,315,0.0,0.0,92,0.00,,---,0.00,VWS V14.01,2013-04-24 05:21:00,
2013-04-24 01:26:00,41.7,40.4,30.06,NW,314,0.0,0.0,95,0.00,,---,0.00,VWS V14.01,2013-04-24 05:26:00,
2013-04-24 01:31:00,41.7,40.4,30.06,WNW,298,3.1,3.1,95,0.00,,---,0.00,VWS V14.01,2013-04-24 05:31:00,
2013-04-24 01:36:00,41.0,39.1,30.09,North,351,3.1,3.6,93,0.00,,---,0.00,VWS V14.01,2013-04-24 05:36:00,
2013-04-24 01:41:00,40.8,39.0,30.09,WNW,284,4.0,4.0,93,0.00,,---,0.00,VWS V14.01,2013-04-24 05:41:00,
2013-04-24 01:46:00,40.6,39.0,30.09,West,266,4.0,4.0,94,0.00,,---,0.00,VWS V14.01,2013-04-24 05:46:00,
2013-04-24 01:51:00,40.6,39.3,30.06,North,351,3.6,3.6,95,0.00,,---,0.00,VWS V14.01,2013-04-24 05:51:00,
2013-04-24 01:56:00,40.6,39.3,30.06,NW,320,0.0,0.0,95,0.00,,---,0.00,VWS V14.01,2013-04-24 05:56:00,
2013-04-24 02:01:00,40.5,39.4,30.06,NNW,346,3.1,3.1,96,0.00,,---,0.00,VWS V14.01,2013-04-24 06:01:00,
2013-04-24 02:06:00,40.6,39.9,30.06,West,267,0.0,0.0,97,0.00,,---,0.00,VWS V14.01,2013-04-24 06:06:00,
2013-04-24 02:11:00,40.5,39.7,30.06,West,266,0.0,0.0,97,0.00,,---,0.00,VWS V14.01,2013-04-24 06:11:00,
2013-04-24 02:16:00,40.6,40.4,30.06,North,351,0.0,0.0,99,0.00,,---,0.00,VWS V14.01,2013-04-24 06:16:00,
2013-04-24 02:21:00,40.8,40.8,30.06,North,351,0.0,2.7,100,0.00,,---,0.00,VWS V14.01,2013-04-24 06:21:00,
2013-04-24 02:26:00,41.2,41.2,30.06,West,269,0.0,0.0,100,0.00,,---,0.00,VWS V14.01,2013-04-24 06:26:00,
2013-04-24 02:31:00,41.7,41.7,30.06,SSW,212,0.0,0.0,100,0.00,,---,0.00,VWS V14.01,2013-04-24 06:31:00,
2013-04-24 02:36:00,41.5,41.5,30.06,SW,231,0.0,0.0,100,0.00,,---,0.00,VWS V14.01,2013-04-24 06:36:00,
2013-04-24 02:41:00,41.2,41.2,30.06,SW,223,0.0,0.0,100,0.00,,---,0.00,VWS V14.01,2013-04-24 06:41:00,
2013-04-24 02:46:00,41.4,41.4,30.06,NW,305,0.0,0.0,100,0.00,,---,0.00,VWS V14.01,2013-04-24 06:46:00,
2013-04-24 02:51:00,41.5,41.5,30.06,North,351,0.0,0.0,100,0.00,,---,0.00,VWS V14.01,2013-04-24 06:51:00,
2013-04-24 02:56:00,41.4,41.4,30.06,North,351,0.0,0.0,100,0.00,,---,0.00,VWS V14.01,2013-04-24 06:56:00,
2013-04-24 03:01:00,41.4,41.4,30.06,SW,232,0.0,0.0,100,0.00,,---,0.00,VWS V14.01,2013-04-24 07:01:00,
2013-04-24 03:06:00,41.9,41.9,30.03,East,95,0.0,0.0,100,0.00,,---,0.00,VWS V14.01,2013-04-24 07:06:00,
2013-04-24 03:11:00,41.9,41.9,30.03,NW,318,4.0,4.0,100,0.00,,---,0.00,VWS V14.01,2013-04-24 07:11:00,
2013-04-24 03:16:00,42.1,42.1,30.03,SSW,203,0.0,0.0,100,0.00,,---,0.00,VWS V14.01,2013-04-24 07:16:00,
2013-04-24 03:21:00,41.9,41.9,30.03,North,351,3.6,3.6,100,0.00,,---,0.00,VWS V14.01,2013-04-24 07:21:00,
2013-04-24 03:26:00,42.3,42.3,30.03,North,351,0.0,0.0,100,0.00,,---,0.00,VWS V14.01,2013-04-24 07:26:00,
2013-04-24 03:31:00,42.4,42.4,30.03,South,174,0.0,0.0,100,0.00,,---,0.00,VWS V14.01,2013-04-24 07:31:00,
2013-04-24 03:36:00,42.6,42.6,30.03,SW,232,3.1,3.1,100,0.00,,---,0.00,VWS V14.01,2013-04-24 07:36:00,
2013-04-24 03:41:00,42.3,42.0,30.03,SW,231,0.0,0.0,99,0.00,,---,0.00,VWS V14.01,2013-04-24 07:41:00,
2013-04-24 03:46:00,42.3,42.0,30.03,SW,223,0.0,0.0,99,0.00,,---,0.00,VWS V14.01,2013-04-24 07:46:00,
2013-04-24 03:51:00,41.7,41.5,30.03,WSW,242,0.0,0.0,99,0.00,,---,0.00,VWS V14.01,2013-04-24 07:51:00,
2013-04-24 03:56:00,42.1,42.1,30.03,NE,43,0.0,0.0,100,0.00,,---,0.00,VWS V14.01,2013-04-24 07:56:00,
2013-04-24 04:01:00,41.9,41.9,30.03,SSW,203,0.0,0.0,100,0.00,,---,0.00,VWS V14.01,2013-04-24 08:01:00,
2013-04-24 04:06:00,42.1,42.1,30.03,ESE,104,0.0,0.0,100,0.00,,---,0.00,VWS V14.01,2013-04-24 08:06:00,
2013-04-24 04:11:00,42.1,42.1,30.03,SE,126,0.0,0.0,100,0.00,,---,0.00,VWS V14.01,2013-04-24 08:11:00,
2013-04-24 04:16:00,41.7,41.7,30.03,ESE,108,0.0,0.0,100,0.00,,---,0.00,VWS V14.01,2013-04-24 08:16:00,
2013-04-24 04:21:00,41.4,41.4,30.03,ESE,108,0.0,0.0,100,0.00,,---,0.00,VWS V14.01,2013-04-24 08:21:00,
2013-04-24 04:26:00,41.2,41.2,30.03,SE,130,0.0,0.0,100,0.00,,---,0.00,VWS V14.01,2013-04-24 08:26:00,
2013-04-24 04:31:00,41.0,41.0,30.03,WSW,255,0.0,0.0,100,0.00,,---,0.00,VWS V14.01,2013-04-24 08:31:00,
2013-04-24 04:36:00,41.0,41.0,30.03,South,187,0.0,0.0,100,0.00,,---,0.00,VWS V14.01,2013-04-24 08:36:00,
2013-04-24 04:41:00,41.2,41.2,30.03,East,94,2.7,3.1,100,0.00,,---,0.00,VWS V14.01,2013-04-24 08:41:00,
2013-04-24 04:46:00,41.0,41.0,30.03,East,93,0.0,0.0,100,0.00,,---,0.00,VWS V14.01,2013-04-24 08:46:00,
2013-04-24 04:51:00,40.5,40.5,30.03,West,275,0.0,0.0,100,0.00,,---,0.00,VWS V14.01,2013-04-24 08:51:00,
2013-04-24 04:56:00,40.5,40.5,30.03,North,351,3.1,3.1,100,0.00,,---,0.00,VWS V14.01,2013-04-24 08:56:00,
2013-04-24 05:01:00,40.3,40.3,30.03,WNW,286,0.0,0.0,100,0.00,,---,0.00,VWS V14.01,2013-04-24 09:01:00,
2013-04-24 05:06:00,40.8,40.8,30.03,SW,232,0.0,0.0,100,0.00,,---,0.00,VWS V14.01,2013-04-24 09:06:00,
2013-04-24 05:11:00,41.0,41.0,30.03,SW,232,0.0,0.0,100,0.00,,---,0.00,VWS V14.01,2013-04-24 09:11:00,
2013-04-24 05:16:00,41.2,41.2,30.03,WSW,246,0.0,0.0,100,0.00,,---,0.00,VWS V14.01,2013-04-24 09:16:00,
2013-04-24 05:21:00,41.2,41.2,30.03,WSW,238,0.0,0.0,100,0.00,,---,0.00,VWS V14.01,2013-04-24 09:21:00,
2013-04-24 05:26:00,41.4,41.4,30.03,North,351,3.1,3.6,100,0.00,,---,0.00,VWS V14.01,2013-04-24 09:26:00,
2013-04-24 05:31:00,41.5,41.5,30.03,North,351,0.0,0.0,100,0.00,,---,0.00,VWS V14.01,2013-04-24 09:31:00,
2013-04-24 05:36:00,41.7,41.7,30.03,North,351,0.0,0.0,100,0.00,,---,0.00,VWS V14.01,2013-04-24 09:36:00,
2013-04-24 05:41:00,41.9,41.9,30.03,North,351,0.0,0.0,100,0.00,,---,0.00,VWS V14.01,2013-04-24 09:41:00,
2013-04-24 05:46:00,41.7,41.7,30.03,North,351,0.0,0.0,100,0.00,,---,0.00,VWS V14.01,2013-04-24 09:46:00,
2013-04-24 05:51:00,42.1,42.1,30.03,North,351,0.0,0.0,100,0.00,,---,0.00,VWS V14.01,2013-04-24 09:51:00,
2013-04-24 05:56:00,42.1,42.1,30.03,North,351,0.0,0.0,100,0.00,,---,0.00,VWS V14.01,2013-04-24 09:56:00,
2013-04-24 06:01:00,42.3,42.3,30.03,North,351,0.0,0.0,100,0.00,,---,0.00,VWS V14.01,2013-04-24 10:01:00,
2013-04-24 06:06:00,42.3,42.3,30.03,North,351,0.0,0.0,100,0.00,,---,0.00,VWS V14.01,2013-04-24 10:06:00,
2013-04-24 06:11:00,42.3,42.3,30.03,North,351,0.0,0.0,100,0.00,,---,0.00,VWS V14.01,2013-04-24 10:11:00,
2013-04-24 06:16:00,42.1,42.1,30.03,North,351,0.0,0.0,100,0.00,,---,0.00,VWS V14.01,2013-04-24 10:16:00,
2013-04-24 06:21:00,41.7,41.7,30.03,North,351,0.0,0.0,100,0.00,,---,0.00,VWS V14.01,2013-04-24 10:21:00,
2013-04-24 06:26:00,41.7,41.7,30.03,North,351,0.0,0.0,100,0.00,,---,0.00,VWS V14.01,2013-04-24 10:26:00,
2013-04-24 06:31:00,41.7,41.7,30.03,North,351,0.0,0.0,100,0.00,,---,0.00,VWS V14.01,2013-04-24 10:31:00,
2013-04-24 06:36:00,41.7,41.7,30.03,North,351,0.0,0.0,100,0.00,,---,0.00,VWS V14.01,2013-04-24 10:36:00,
2013-04-24 06:41:00,41.9,41.9,30.03,North,351,0.0,0.0,100,0.00,,---,0.00,VWS V14.01,2013-04-24 10:41:00,
2013-04-24 06:46:00,42.1,42.1,30.03,North,351,0.0,0.0,100,0.00,,---,0.00,VWS V14.01,2013-04-24 10:46:00,
2013-04-24 06:51:00,42.1,42.1,30.03,North,351,0.0,0.0,100,0.00,,---,0.00,VWS V14.01,2013-04-24 10:51:00,
2013-04-24 06:56:00,42.3,42.3,30.03,North,351,0.0,0.0,100,0.00,,---,0.00,VWS V14.01,2013-04-24 10:56:00,
2013-04-24 07:01:00,42.8,42.8,30.03,North,351,0.0,0.0,100,0.00,,---,0.00,VWS V14.01,2013-04-24 11:01:00,
2013-04-24 07:06:00,42.8,42.8,30.03,North,351,0.0,0.0,100,0.00,,---,0.00,VWS V14.01,2013-04-24 11:06:00,
2013-04-24 07:11:00,43.2,43.2,30.03,North,351,0.0,0.0,100,0.00,,---,0.00,VWS V14.01,2013-04-24 11:11:00,
2013-04-24 07:16:00,43.3,43.3,30.03,North,351,0.0,0.0,100,0.00,,---,0.00,VWS V14.01,2013-04-24 11:16:00,
2013-04-24 07:21:00,43.5,43.5,30.03,East,91,0.0,0.0,100,0.00,,---,0.00,VWS V14.01,2013-04-24 11:21:00,
2013-04-24 07:26:00,43.7,43.7,30.03,East,90,0.0,0.0,100,0.00,,---,0.00,VWS V14.01,2013-04-24 11:26:00,
2013-04-24 07:31:00,44.4,44.4,30.03,North,351,0.0,0.0,100,0.00,,---,0.00,VWS V14.01,2013-04-24 11:31:00,
2013-04-24 07:36:00,44.8,44.8,30.03,North,351,0.0,0.0,100,0.00,,---,0.00,VWS V14.01,2013-04-24 11:36:00,
2013-04-24 07:41:00,45.3,44.5,30.03,ENE,75,0.0,0.0,97,0.00,,---,0.00,VWS V14.01,2013-04-24 11:41:00,
2013-04-24 07:46:00,46.0,44.7,30.03,North,351,0.0,0.0,95,0.00,,---,0.00,VWS V14.01,2013-04-24 11:46:00,
2013-04-24 07:51:00,46.2,43.7,30.03,East,85,2.7,2.7,91,0.00,,---,0.00,VWS V14.01,2013-04-24 11:51:00,
2013-04-24 07:56:00,46.9,44.2,30.03,ESE,115,3.6,3.6,90,0.00,,---,0.00,VWS V14.01,2013-04-24 11:56:00,
2013-04-24 08:01:00,47.1,43.5,30.03,SSW,205,0.0,2.7,87,0.00,,---,0.00,VWS V14.01,2013-04-24 12:01:00,
2013-04-24 08:06:00,47.1,43.5,30.03,West,259,0.0,0.0,87,0.00,,---,0.00,VWS V14.01,2013-04-24 12:06:00,
2013-04-24 08:11:00,46.8,42.5,30.03,SE,127,0.0,3.1,85,0.00,,---,0.00,VWS V14.01,2013-04-24 12:11:00,
2013-04-24 08:16:00,47.5,43.5,30.03,ESE,118,0.0,0.0,86,0.00,,---,0.00,VWS V14.01,2013-04-24 12:16:00,
2013-04-24 08:21:00,47.5,43.2,30.01,SE,141,0.0,0.0,85,0.00,,---,0.00,VWS V14.01,2013-04-24 12:21:00,
2013-04-24 08:26:00,47.5,42.9,30.01,SSE,168,3.1,3.1,84,0.00,,---,0.00,VWS V14.01,2013-04-24 12:26:00,
2013-04-24 08:31:00,48.6,44.0,30.01,North,351,3.6,5.8,84,0.00,,---,0.00,VWS V14.01,2013-04-24 12:31:00,
2013-04-24 08:36:00,49.1,42.9,30.01,SW,233,6.3,6.7,79,0.00,,---,0.00,VWS V14.01,2013-04-24 12:36:00,
2013-04-24 08:41:00,49.1,42.2,30.01,SSE,166,3.6,4.5,77,0.00,,---,0.00,VWS V14.01,2013-04-24 12:41:00,
2013-04-24 08:46:00,48.7,42.5,30.01,SE,130,0.0,3.6,79,0.00,,---,0.00,VWS V14.01,2013-04-24 12:46:00,
2013-04-24 08:51:00,49.3,43.4,30.01,West,267,2.7,2.7,80,0.00,,---,0.00,VWS V14.01,2013-04-24 12:51:00,
2013-04-24 08:56:00,49.1,42.9,30.01,South,176,3.6,5.4,79,0.00,,---,0.00,VWS V14.01,2013-04-24 12:56:00,
2013-04-24 09:01:00,48.2,42.3,30.01,WNW,299,4.5,5.8,80,0.00,,---,0.00,VWS V14.01,2013-04-24 13:01:00,
2013-04-24 09:06:00,48.4,43.5,30.01,SW,231,3.6,3.6,83,0.00,,---,0.00,VWS V14.01,2013-04-24 13:06:00,
2013-04-24 09:11:00,48.6,43.3,30.01,NNW,331,0.0,0.0,82,0.00,,---,0.00,VWS V14.01,2013-04-24 13:11:00,
2013-04-24 09:16:00,48.7,43.5,30.01,NNW,337,4.0,4.5,82,0.00,,---,0.00,VWS V14.01,2013-04-24 13:16:00,
2013-04-24 09:21:00,48.7,43.2,30.01,ESE,113,0.0,0.0,81,0.00,,---,0.00,VWS V14.01,2013-04-24 13:21:00,
2013-04-24 09:26:00,49.6,43.7,30.01,North,351,2.7,3.1,80,0.00,,---,0.00,VWS V14.01,2013-04-24 13:26:00,
2013-04-24 09:31:00,50.0,44.1,30.01,South,178,0.0,0.0,80,0.00,,---,0.00,VWS V14.01,2013-04-24 13:31:00,
2013-04-24 09:36:00,49.8,43.2,30.01,SSW,194,3.6,4.5,78,0.00,,---,0.00,VWS V14.01,2013-04-24 13:36:00,
2013-04-24 09:41:00,50.0,43.8,30.01,SSW,201,0.0,0.0,79,0.00,,---,0.00,VWS V14.01,2013-04-24 13:41:00,
2013-04-24 09:46:00,50.0,43.4,30.01,SSE,166,3.6,3.6,78,0.00,,---,0.00,VWS V14.01,2013-04-24 13:46:00,
2013-04-24 09:51:00,50.5,44.3,30.01,South,189,0.0,0.0,79,0.00,,---,0.00,VWS V14.01,2013-04-24 13:51:00,
2013-04-24 09:56:00,51.8,44.1,30.01,SSW,206,6.7,6.7,75,0.00,,---,0.00,VWS V14.01,2013-04-24 13:56:00,
2013-04-24 10:01:00,50.2,42.2,30.01,South,169,3.6,4.9,74,0.00,,---,0.00,VWS V14.01,2013-04-24 14:01:00,
2013-04-24 10:06:00,50.9,43.6,30.01,SSW,194,0.0,3.6,76,0.00,,---,0.00,VWS V14.01,2013-04-24 14:06:00,
2013-04-24 10:11:00,51.6,44.0,30.01,North,351,0.0,0.0,75,0.00,,---,0.00,VWS V14.01,2013-04-24 14:11:00,
2013-04-24 10:16:00,51.6,43.3,30.01,South,183,0.0,0.0,73,0.00,,---,0.00,VWS V14.01,2013-04-24 14:16:00,
2013-04-24 10:21:00,52.5,45.2,29.98,East,94,3.1,3.1,76,0.00,,---,0.00,VWS V14.01,2013-04-24 14:21:00,
2013-04-24 10:26:00,51.3,42.9,29.98,SSE,152,0.0,0.0,73,0.00,,---,0.00,VWS V14.01,2013-04-24 14:26:00,
2013-04-24 10:31:00,52.0,44.0,29.98,East,88,0.0,3.6,74,0.00,,---,0.00,VWS V14.01,2013-04-24 14:31:00,
2013-04-24 10:36:00,53.2,44.1,29.98,ESE,109,2.7,3.6,71,0.00,,---,0.00,VWS V14.01,2013-04-24 14:36:00,
2013-04-24 10:41:00,54.5,44.9,29.98,SE,138,2.7,3.1,70,0.00,,---,0.00,VWS V14.01,2013-04-24 14:41:00,
2013-04-24 10:46:00,55.9,45.2,29.98,WNW,297,4.5,5.8,67,0.00,,---,0.00,VWS V14.01,2013-04-24 14:46:00,
2013-04-24 10:51:00,58.6,45.2,29.98,SSW,211,0.0,0.0,61,0.00,,---,0.00,VWS V14.01,2013-04-24 14:51:00,
2013-04-24 10:56:00,59.2,46.2,29.98,SW,225,3.6,5.4,62,0.00,,---,0.00,VWS V14.01,2013-04-24 14:56:00,
2013-04-24 11:01:00,59.7,45.8,29.98,SSW,209,3.1,5.4,60,0.00,,---,0.00,VWS V14.01,2013-04-24 15:01:00,
2013-04-24 11:09:00,59.2,45.3,29.95,North,351,6.7,7.8,60,0.00,,---,0.00,VWS V14.01,2013-04-24 15:09:00,
2013-04-24 11:14:00,61.0,44.7,29.95,SSE,156,5.8,6.7,55,0.00,,---,0.00,VWS V14.01,2013-04-24 15:14:00,
2013-04-24 11:19:00,61.7,45.9,29.95,ESE,115,4.0,8.3,56,0.00,,---,0.00,VWS V14.01,2013-04-24 15:19:00,
2013-04-24 11:24:00,63.0,46.1,29.95,ESE,119,0.0,2.7,54,0.00,,---,0.00,VWS V14.01,2013-04-24 15:24:00,
2013-04-24 11:29:00,61.9,46.0,29.95,ESE,105,4.5,4.5,56,0.00,,---,0.00,VWS V14.01,2013-04-24 15:29:00,
2013-04-24 11:34:00,62.2,45.4,29.95,NW,315,6.3,6.3,54,0.00,,---,0.00,VWS V14.01,2013-04-24 15:34:00,
2013-04-24 11:39:00,64.8,47.8,29.95,SSW,193,4.5,5.4,54,0.00,,---,0.00,VWS V14.01,2013-04-24 15:39:00,
2013-04-24 11:44:00,64.2,47.2,29.95,South,175,4.0,4.9,54,0.00,,---,0.00,VWS V14.01,2013-04-24 15:44:00,
2013-04-24 11:49:00,63.1,46.2,29.95,SE,139,4.5,4.9,54,0.00,,---,0.00,VWS V14.01,2013-04-24 15:49:00,
2013-04-24 11:54:00,60.1,44.3,29.95,NNE,15,0.0,0.0,56,0.00,,---,0.00,VWS V14.01,2013-04-24 15:54:00,
2013-04-24 11:59:00,60.1,46.2,29.95,ESE,122,0.0,3.1,60,0.00,,---,0.00,VWS V14.01,2013-04-24 15:59:00,
2013-04-24 12:04:00,60.3,45.9,29.95,NW,317,4.0,4.0,59,0.00,,---,0.00,VWS V14.01,2013-04-24 16:04:00,
2013-04-24 12:09:00,61.5,46.6,29.92,NNW,329,0.0,0.0,58,0.00,,---,0.00,VWS V14.01,2013-04-24 16:09:00,
2013-04-24 12:14:00,63.3,47.8,29.92,WNW,295,4.0,4.5,57,0.00,,---,0.00,VWS V14.01,2013-04-24 16:14:00,
2013-04-24 12:19:00,66.0,48.4,29.92,South,181,5.4,6.3,53,0.00,,---,0.00,VWS V14.01,2013-04-24 16:19:00,
2013-04-24 12:24:00,64.4,46.9,29.92,North,351,3.1,4.9,53,0.00,,---,0.00,VWS V14.01,2013-04-24 16:24:00,
2013-04-24 12:29:00,65.3,47.8,29.92,WSW,255,8.3,8.3,53,0.00,,---,0.00,VWS V14.01,2013-04-24 16:29:00,
2013-04-24 12:34:00,65.7,48.6,29.92,SW,229,4.5,7.4,54,0.00,,---,0.00,VWS V14.01,2013-04-24 16:34:00,
2013-04-24 12:39:00,66.6,48.4,29.92,South,170,5.8,5.8,52,0.00,,---,0.00,VWS V14.01,2013-04-24 16:39:00,
2013-04-24 12:44:00,67.5,49.2,29.92,SSE,148,3.6,5.4,52,0.00,,---,0.00,VWS V14.01,2013-04-24 16:44:00,
2013-04-24 12:49:00,67.3,49.1,29.92,ESE,122,5.8,5.8,52,0.00,,---,0.00,VWS V14.01,2013-04-24 16:49:00,
2013-04-24 12:54:00,64.0,46.6,29.89,ESE,103,3.6,4.9,53,0.00,,---,0.00,VWS V14.01,2013-04-24 16:54:00,
2013-04-24 12:59:00,68.4,50.1,29.89,North,351,4.9,8.3,52,0.00,,---,0.00,VWS V14.01,2013-04-24 16:59:00,
2013-04-24 13:04:00,67.8,48.5,29.89,NNW,336,6.7,6.7,50,0.00,,---,0.00,VWS V14.01,2013-04-24 17:04:00,
2013-04-24 13:09:00,68.4,49.0,29.89,NNW,341,5.8,9.2,50,0.00,,---,0.00,VWS V14.01,2013-04-24 17:09:00,
2013-04-24 13:14:00,70.0,50.0,29.89,ESE,122,4.0,5.4,49,0.00,,---,0.00,VWS V14.01,2013-04-24 17:14:00,
2013-04-24 13:19:00,66.7,48.6,29.89,WNW,288,4.5,4.5,52,0.00,,---,0.00,VWS V14.01,2013-04-24 17:19:00,
2013-04-24 13:24:00,67.3,49.6,29.89,NW,312,5.8,6.9,53,0.00,,---,0.00,VWS V14.01,2013-04-24 17:24:00,
2013-04-24 13:29:00,68.4,49.0,29.89,SSE,152,5.8,5.8,50,0.00,,---,0.00,VWS V14.01,2013-04-24 17:29:00,
2013-04-24 13:34:00,69.8,49.8,29.89,East,92,2.7,3.1,49,0.00,,---,0.00,VWS V14.01,2013-04-24 17:34:00,
2013-04-24 13:39:00,70.0,50.0,29.86,SSE,156,0.0,2.7,49,0.00,,---,0.00,VWS V14.01,2013-04-24 17:39:00,
2013-04-24 13:44:00,68.0,49.7,29.86,WSW,248,5.4,5.4,52,0.00,,---,0.00,VWS V14.01,2013-04-24 17:44:00,
2013-04-24 13:49:00,67.6,48.4,29.86,SW,218,5.4,6.3,50,0.00,,---,0.00,VWS V14.01,2013-04-24 17:49:00,
2013-04-24 13:54:00,68.5,50.8,29.86,West,271,8.3,8.3,53,0.00,,---,0.00,VWS V14.01,2013-04-24 17:54:00,
2013-04-24 13:59:00,70.5,50.5,29.86,NNW,329,4.5,4.5,49,0.00,,---,0.00,VWS V14.01,2013-04-24 17:59:00,
2013-04-24 14:04:00,71.8,49.9,29.86,NNW,347,7.4,7.4,46,0.00,,---,0.00,VWS V14.01,2013-04-24 18:04:00,
2013-04-24 14:09:00,71.1,49.3,29.86,West,275,7.4,7.8,46,0.00,,---,0.00,VWS V14.01,2013-04-24 18:09:00,
2013-04-24 14:14:00,72.1,50.2,29.86,North,351,3.6,3.6,46,0.00,,---,0.00,VWS V14.01,2013-04-24 18:14:00,
2013-04-24 14:19:00,72.0,50.1,29.86,SE,130,3.6,3.6,46,0.00,,---,0.00,VWS V14.01,2013-04-24 18:19:00,
2013-04-24 14:24:00,69.8,49.8,29.83,North,351,2.7,2.7,49,0.00,,---,0.00,VWS V14.01,2013-04-24 18:24:00,
2013-04-24 14:29:00,70.9,50.8,29.83,ENE,71,0.0,0.0,49,0.00,,---,0.00,VWS V14.01,2013-04-24 18:29:00,
2013-04-24 14:34:00,72.5,50.6,29.83,SE,141,6.7,6.7,46,0.00,,---,0.00,VWS V14.01,2013-04-24 18:34:00,
2013-04-24 14:39:00,71.1,49.3,29.83,East,101,3.6,3.6,46,0.00,,---,0.00,VWS V14.01,2013-04-24 18:39:00,
2013-04-24 14:44:00,71.8,49.9,29.83,East,92,4.5,4.5,46,0.00,,---,0.00,VWS V14.01,2013-04-24 18:44:00,
2013-04-24 14:49:00,71.4,49.6,29.83,ESE,123,2.7,2.7,46,0.00,,---,0.00,VWS V14.01,2013-04-24 18:49:00,
2013-04-24 14:54:00,72.5,50.6,29.83,SE,144,3.1,3.1,46,0.00,,---,0.00,VWS V14.01,2013-04-24 18:54:00,
2013-04-24 14:59:00,69.8,48.7,29.83,SSW,200,3.1,11.0,47,0.00,,---,0.00,VWS V14.01,2013-04-24 18:59:00,
2013-04-24 15:04:00,70.9,49.1,29.83,WNW,292,5.4,8.3,46,0.00,,---,0.00,VWS V14.01,2013-04-24 19:04:00,
2013-04-24 15:09:00,71.4,51.3,29.83,NNW,346,3.1,9.2,49,0.00,,---,0.00,VWS V14.01,2013-04-24 19:09:00,
2013-04-24 15:14:00,71.6,51.5,29.83,NW,310,4.5,6.9,49,0.00,,---,0.00,VWS V14.01,2013-04-24 19:14:00,
2013-04-24 15:19:00,71.2,49.4,29.83,West,261,6.9,10.1,46,0.00,,---,0.00,VWS V14.01,2013-04-24 19:19:00,
2013-04-24 15:24:00,70.3,49.2,29.83,West,272,13.0,13.0,47,0.00,,---,0.00,VWS V14.01,2013-04-24 19:24:00,
2013-04-24 15:29:00,69.3,48.2,29.83,South,184,6.3,11.6,47,0.00,,---,0.00,VWS V14.01,2013-04-24 19:29:00,
2013-04-24 15:34:00,70.9,50.8,29.83,SW,225,6.3,11.2,49,0.00,,---,0.00,VWS V14.01,2013-04-24 19:34:00,
2013-04-24 15:39:00,71.2,49.4,29.80,West,264,6.7,10.5,46,0.00,,---,0.00,VWS V14.01,2013-04-24 19:39:00,
2013-04-24 15:44:00,71.8,49.9,29.80,South,177,9.6,10.1,46,0.00,,---,0.00,VWS V14.01,2013-04-24 19:44:00,
2013-04-24 15:49:00,72.1,50.2,29.80,South,185,5.4,8.7,46,0.00,,---,0.00,VWS V14.01,2013-04-24 19:49:00,
2013-04-24 15:54:00,72.0,50.1,29.80,SW,227,6.7,11.2,46,0.00,,---,0.00,VWS V14.01,2013-04-24 19:54:00,
2013-04-24 15:59:00,72.0,51.8,29.80,ESE,121,3.6,6.7,49,0.00,,---,0.00,VWS V14.01,2013-04-24 19:59:00,
2013-04-24 16:04:00,70.9,49.1,29.80,SW,233,15.9,15.9,46,0.00,,---,0.00,VWS V14.01,2013-04-24 20:04:00,
2013-04-24 16:09:00,72.5,50.6,29.77,NW,312,6.7,10.1,46,0.00,,---,0.00,VWS V14.01,2013-04-24 20:09:00,
2013-04-24 16:14:00,71.4,49.6,29.77,North,351,4.0,9.6,46,0.00,,---,0.00,VWS V14.01,2013-04-24 20:14:00,
2013-04-24 16:19:00,71.4,51.3,29.77,South,177,3.1,9.2,49,0.00,,---,0.00,VWS V14.01,2013-04-24 20:19:00,
2013-04-24 16:24:00,70.2,50.1,29.74,SSW,198,4.0,7.8,49,0.00,,---,0.00,VWS V14.01,2013-04-24 20:24:00,
2013-04-24 16:28:00,69.6,51.2,29.74,South,191,7.4,9.2,52,0.00,,---,0.00,VWS V14.01,2013-04-24 20:28:00,
2013-04-24 16:33:00,69.4,51.1,29.74,SSE,166,4.5,6.7,52,0.00,,---,0.00,VWS V14.01,2013-04-24 20:33:00,
2013-04-24 16:38:00,69.8,51.4,29.74,North,351,5.8,11.0,52,0.00,,---,0.00,VWS V14.01,2013-04-24 20:38:00,
2013-04-24 16:43:00,70.3,51.9,29.74,SSW,195,4.9,6.7,52,0.00,,---,0.00,VWS V14.01,2013-04-24 20:43:00,
2013-04-24 16:48:00,71.6,51.5,29.74,NNW,344,4.5,5.4,49,0.00,,---,0.00,VWS V14.01,2013-04-24 20:48:00,
2013-04-24 16:53:00,71.6,51.5,29.74,SE,136,3.6,4.9,49,0.00,,---,0.00,VWS V14.01,2013-04-24 20:53:00,
2013-04-24 16:58:00,70.9,50.8,29.74,SW,230,2.7,4.5,49,0.00,,---,0.00,VWS V14.01,2013-04-24 20:58:00,
2013-04-24 17:03:00,70.7,50.6,29.74,WNW,299,6.7,6.7,49,0.00,,---,0.00,VWS V14.01,2013-04-24 21:03:00,
2013-04-24 17:08:00,70.7,51.7,29.74,SSE,147,4.0,7.8,51,0.00,,---,0.00,VWS V14.01,2013-04-24 21:08:00,
2013-04-24 17:13:00,70.3,51.9,29.74,North,351,3.1,5.4,52,0.00,,---,0.00,VWS V14.01,2013-04-24 21:13:00,
2013-04-24 17:18:00,69.8,51.4,29.74,South,182,3.6,6.9,52,0.00,,---,0.00,VWS V14.01,2013-04-24 21:18:00,
2013-04-24 17:23:00,69.6,51.2,29.74,North,351,5.8,8.3,52,0.00,,---,0.00,VWS V14.01,2013-04-24 21:23:00,
2013-04-24 17:28:00,69.4,51.1,29.74,NW,305,5.8,6.9,52,0.00,,---,0.00,VWS V14.01,2013-04-24 21:28:00,
2013-04-24 17:33:00,69.3,50.9,29.74,WNW,302,6.7,11.6,52,0.00,,---,0.00,VWS V14.01,2013-04-24 21:33:00,
2013-04-24 17:38:00,68.7,51.4,29.77,NNW,334,8.3,11.2,54,0.00,,---,0.00,VWS V14.01,2013-04-24 21:38:00,
2013-04-24 17:43:00,67.8,51.1,29.77,NW,319,6.9,10.1,55,0.00,,---,0.00,VWS V14.01,2013-04-24 21:43:00,
2013-04-24 17:48:00,67.1,51.8,29.77,WNW,303,8.7,13.9,58,0.00,,---,0.00,VWS V14.01,2013-04-24 21:48:00,
2013-04-24 17:53:00,63.0,56.3,29.83,WNW,292,8.3,10.1,79,0.16,,---,0.16,VWS V14.01,2013-04-24 21:53:00,
2013-04-24 17:58:00,61.9,58.6,29.83,NE,50,6.9,12.5,89,0.16,,---,0.16,VWS V14.01,2013-04-24 21:58:00,
2013-04-24 18:03:00,61.3,59.6,29.83,West,264,8.7,8.7,94,0.20,,---,0.20,VWS V14.01,2013-04-24 22:03:00,
2013-04-24 18:08:00,61.2,60.0,29.83,North,351,8.3,9.2,96,0.20,,---,0.20,VWS V14.01,2013-04-24 22:08:00,
2013-04-24 18:13:00,60.8,60.0,29.83,NW,320,6.7,7.4,97,0.24,,---,0.24,VWS V14.01,2013-04-24 22:13:00,
2013-04-24 18:18:00,60.6,59.8,29.83,NNW,347,4.9,7.4,97,0.24,,---,0.24,VWS V14.01,2013-04-24 22:18:00,
2013-04-24 18:23:00,60.8,60.5,29.83,North,351,4.5,4.5,99,0.24,,---,0.24,VWS V14.01,2013-04-24 22:23:00,
2013-04-24 18:28:00,60.6,60.1,29.83,North,351,5.4,6.9,98,0.28,,---,0.28,VWS V14.01,2013-04-24 22:28:00,
2013-04-24 18:33:00,60.1,60.1,29.83,East,97,4.5,5.8,100,0.28,,---,0.28,VWS V14.01,2013-04-24 22:33:00,
2013-04-24 18:38:00,59.9,59.9,29.77,ESE,113,4.9,5.4,100,0.28,,---,0.28,VWS V14.01,2013-04-24 22:38:00,
2013-04-24 18:43:00,60.1,60.1,29.77,ENE,70,3.6,3.6,100,0.28,,---,0.28,VWS V14.01,2013-04-24 22:43:00,
2013-04-24 18:48:00,59.9,59.9,29.77,WSW,249,0.0,0.0,100,0.28,,---,0.28,VWS V14.01,2013-04-24 22:48:00,
2013-04-24 18:53:00,60.3,60.3,29.80,North,351,4.5,4.5,100,0.20,,---,0.28,VWS V14.01,2013-04-24 22:53:00,
2013-04-24 18:58:00,60.3,60.3,29.80,North,351,2.7,3.6,100,0.12,,---,0.28,VWS V14.01,2013-04-24 22:58:00,
2013-04-24 19:03:00,60.1,60.1,29.80,North,351,2.7,2.7,100,0.08,,---,0.28,VWS V14.01,2013-04-24 23:03:00,
2013-04-24 19:08:00,59.9,59.9,29.80,SSW,206,3.6,5.4,100,0.08,,---,0.28,VWS V14.01,2013-04-24 23:08:00,
2013-04-24 19:13:00,59.5,59.5,29.80,NNW,327,6.3,10.1,100,0.04,,---,0.28,VWS V14.01,2013-04-24 23:13:00,
2013-04-24 19:18:00,59.7,59.7,29.80,West,260,3.6,4.5,100,0.04,,---,0.28,VWS V14.01,2013-04-24 23:18:00,
2013-04-24 19:23:00,59.5,59.5,29.80,NNW,340,0.0,5.8,100,0.04,,---,0.28,VWS V14.01,2013-04-24 23:23:00,
2013-04-24 19:28:00,59.5,59.5,29.80,North,351,0.0,3.6,100,0.04,,---,0.28,VWS V14.01,2013-04-24 23:28:00,
2013-04-24 19:33:00,59.4,59.4,29.80,South,175,4.5,5.4,100,0.00,,---,0.28,VWS V14.01,2013-04-24 23:33:00,
2013-04-24 19:38:00,59.4,59.4,29.80,SSW,204,0.0,0.0,100,0.00,,---,0.28,VWS V14.01,2013-04-24 23:38:00,
2013-04-24 19:43:00,59.4,59.4,29.80,West,265,2.7,3.6,100,0.00,,---,0.28,VWS V14.01,2013-04-24 23:43:00,
2013-04-24 19:48:00,59.4,59.4,29.80,NNW,344,0.0,4.0,100,0.00,,---,0.28,VWS V14.01,2013-04-24 23:48:00,
2013-04-24 19:53:00,59.4,59.4,29.80,North,351,4.0,4.5,100,0.00,,---,0.28,VWS V14.01,2013-04-24 23:53:00,
2013-04-24 19:58:00,59.4,59.4,29.80,North,351,4.0,4.0,100,0.00,,---,0.28,VWS V14.01,2013-04-24 23:58:00,
2013-04-24 20:03:00,59.4,59.4,29.80,South,171,0.0,0.0,100,0.00,,---,0.28,VWS V14.01,2013-04-25 00:03:00,
2013-04-24 20:08:00,59.4,59.4,29.80,North,351,0.0,0.0,100,0.00,,---,0.28,VWS V14.01,2013-04-25 00:08:00,
2013-04-24 20:13:00,59.4,59.4,29.80,SE,125,0.0,0.0,100,0.00,,---,0.28,VWS V14.01,2013-04-25 00:13:00,
2013-04-24 20:18:00,59.4,59.4,29.80,SE,125,0.0,0.0,100,0.00,,---,0.28,VWS V14.01,2013-04-25 00:18:00,
2013-04-24 20:23:00,59.4,59.4,29.80,NW,319,0.0,3.1,100,0.00,,---,0.28,VWS V14.01,2013-04-25 00:23:00,
2013-04-24 20:28:00,59.4,59.4,29.80,SSE,161,0.0,0.0,100,0.00,,---,0.28,VWS V14.01,2013-04-25 00:28:00,
2013-04-24 20:33:00,59.4,59.4,29.80,ESE,116,0.0,0.0,100,0.00,,---,0.28,VWS V14.01,2013-04-25 00:33:00,
2013-04-24 20:38:00,58.6,58.6,29.80,NNW,344,2.7,2.7,100,0.00,,---,0.28,VWS V14.01,2013-04-25 00:38:00,
2013-04-24 20:43:00,58.5,58.5,29.80,SE,139,0.0,0.0,100,0.00,,---,0.28,VWS V14.01,2013-04-25 00:43:00,
2013-04-24 20:48:00,58.8,58.8,29.80,North,351,4.5,4.9,100,0.00,,---,0.28,VWS V14.01,2013-04-25 00:48:00,
2013-04-24 20:53:00,59.2,59.2,29.80,WNW,294,5.4,6.3,100,0.00,,---,0.28,VWS V14.01,2013-04-25 00:53:00,
2013-04-24 20:58:00,59.4,59.4,29.80,WSW,254,3.1,5.8,100,0.00,,---,0.28,VWS V14.01,2013-04-25 00:58:00,
2013-04-24 21:03:00,59.2,59.2,29.80,SSW,212,4.9,5.4,100,0.00,,---,0.28,VWS V14.01,2013-04-25 01:03:00,
2013-04-24 21:08:00,59.4,59.4,29.80,South,187,0.0,2.7,100,0.00,,---,0.28,VWS V14.01,2013-04-25 01:08:00,
2013-04-24 21:13:00,59.4,59.4,29.80,WSW,247,4.0,4.0,100,0.00,,---,0.28,VWS V14.01,2013-04-25 01:13:00,
2013-04-24 21:18:00,58.3,58.3,29.80,WNW,298,13.0,18.6,100,0.04,,---,0.31,VWS V14.01,2013-04-25 01:18:00,
2013-04-24 21:23:00,57.2,56.6,29.86,WNW,291,10.1,19.5,98,0.04,,---,0.31,VWS V14.01,2013-04-25 01:23:00,
2013-04-24 21:28:00,56.7,52.2,29.86,WNW,297,15.4,17.2,85,0.04,,---,0.31,VWS V14.01,2013-04-25 01:28:00,
2013-04-24 21:33:00,55.9,50.2,29.86,NW,314,13.0,15.2,81,0.04,,---,0.31,VWS V14.01,2013-04-25 01:33:00,
2013-04-24 21:38:00,55.6,49.8,29.86,WNW,298,5.8,7.4,81,0.04,,---,0.31,VWS V14.01,2013-04-25 01:38:00,
2013-04-24 21:43:00,55.0,49.3,29.86,WNW,298,8.7,11.6,81,0.04,,---,0.31,VWS V14.01,2013-04-25 01:43:00,
2013-04-24 21:48:00,54.7,47.6,29.86,West,261,19.0,19.0,77,0.04,,---,0.31,VWS V14.01,2013-04-25 01:48:00,
2013-04-24 21:53:00,54.5,46.0,29.89,WNW,286,15.2,15.2,73,0.04,,---,0.31,VWS V14.01,2013-04-25 01:53:00,
2013-04-24 21:58:00,54.0,45.2,29.89,West,278,9.2,14.3,72,0.04,,---,0.31,VWS V14.01,2013-04-25 01:58:00,
2013-04-24 22:03:00,53.4,44.3,29.89,NW,324,7.8,16.8,71,0.04,,---,0.31,VWS V14.01,2013-04-25 02:03:00,
2013-04-24 22:08:00,52.9,43.8,29.92,WNW,293,13.9,17.7,71,0.04,,---,0.31,VWS V14.01,2013-04-25 02:08:00,
2013-04-24 22:13:00,52.5,43.8,29.92,NW,320,8.3,15.2,72,0.04,,---,0.31,VWS V14.01,2013-04-25 02:13:00,
2013-04-24 22:18:00,52.2,43.4,29.92,NNW,347,5.4,12.5,72,0.00,,---,0.31,VWS V14.01,2013-04-25 02:18:00,
2013-04-24 22:23:00,51.8,42.3,29.92,NW,305,11.2,18.6,70,0.00,,---,0.31,VWS V14.01,2013-04-25 02:23:00,
2013-04-24 22:28:00,51.6,42.2,29.92,WNW,297,10.1,11.2,70,0.00,,---,0.31,VWS V14.01,2013-04-25 02:28:00,
2013-04-24 22:33:00,51.3,42.2,29.92,WNW,300,3.1,4.9,71,0.00,,---,0.31,VWS V14.01,2013-04-25 02:33:00,
2013-04-24 22:38:00,50.9,41.5,29.95,NNW,341,3.1,7.4,70,0.00,,---,0.31,VWS V14.01,2013-04-25 02:38:00,
2013-04-24 22:43:00,50.7,42.0,29.95,NW,322,3.6,6.3,72,0.00,,---,0.31,VWS V14.01,2013-04-25 02:43:00,
2013-04-24 22:48:00,50.5,41.5,29.95,NNW,345,4.5,9.2,71,0.00,,---,0.31,VWS V14.01,2013-04-25 02:48:00,
2013-04-24 22:53:00,50.2,40.8,29.98,NW,324,10.5,12.1,70,0.00,,---,0.31,VWS V14.01,2013-04-25 02:53:00,
2013-04-24 22:58:00,49.6,39.5,29.98,NNW,347,7.4,11.2,68,0.00,,---,0.31,VWS V14.01,2013-04-25 02:58:00,
2013-04-24 23:03:00,49.1,38.6,29.98,NNW,334,16.8,16.8,67,0.00,,---,0.31,VWS V14.01,2013-04-25 03:03:00,
2013-04-24 23:08:00,48.7,38.3,30.01,West,267,13.0,13.9,67,0.00,,---,0.31,VWS V14.01,2013-04-25 03:08:00,
2013-04-24 23:13:00,48.4,37.9,30.01,NW,320,5.8,10.1,67,0.00,,---,0.31,VWS V14.01,2013-04-25 03:13:00,
2013-04-24 23:18:00,47.5,37.1,30.01,WNW,299,9.2,9.6,67,0.00,,---,0.31,VWS V14.01,2013-04-25 03:18:00,
2013-04-24 23:23:00,46.8,35.6,30.01,NW,307,10.1,16.8,65,0.00,,---,0.31,VWS V14.01,2013-04-25 03:23:00,
2013-04-24 23:28:00,46.2,35.1,30.01,WNW,303,13.0,14.8,65,0.00,,---,0.31,VWS V14.01,2013-04-25 03:28:00,
2013-04-24 23:33:00,46.0,34.6,30.01,NNE,32,15.9,19.5,64,0.00,,---,0.31,VWS V14.01,2013-04-25 03:33:00,
2013-04-24 23:38:00,46.0,34.2,30.03,NNW,328,5.4,12.1,63,0.00,,---,0.31,VWS V14.01,2013-04-25 03:38:00,
2013-04-24 23:43:00,45.9,33.6,30.03,NW,310,12.1,13.4,62,0.00,,---,0.31,VWS V14.01,2013-04-25 03:43:00,
2013-04-24 23:48:00,45.3,33.1,30.03,ESE,102,12.5,12.5,62,0.00,,---,0.31,VWS V14.01,2013-04-25 03:48:00,
2013-04-24 23:53:00,44.4,33.8,30.06,North,356,14.8,20.6,66,0.00,,---,0.31,VWS V14.01,2013-04-25 03:53:00,
2013-04-24 23:58:00,43.9,33.7,30.06,NW,315,10.1,13.9,67,0.00,,---,0.31,VWS V14.01,2013-04-25 03:58:00,